sensor_id;sensor_type;location;lat;lon;timestamp;pressure;altitude;pressure_sealevel;temperature
76541;BMP280;65385;55.772;37.658;2023-04-28T00:00:37;99233.28;;;13.23
76541;BMP280;65385;55.772;37.658;2023-04-28T00:01:38;99236.97;;;13.22
76541;BMP280;65385;55.772;37.658;2023-04-28T00:02:38;99236.97;;;13.22
76541;BMP280;65385;55.772;37.658;2023-04-28T00:03:39;99230.16;;;13.21
76541;BMP280;65385;55.772;37.658;2023-04-28T00:04:40;99230.44;;;13.19
76541;BMP280;65385;55.772;37.658;2023-04-28T00:05:41;99238.03;;;13.21
76541;BMP280;65385;55.772;37.658;2023-04-28T00:06:41;99233.88;;;13.20
76541;BMP280;65385;55.772;37.658;2023-04-28T00:07:42;99233.34;;;13.18
76541;BMP280;65385;55.772;37.658;2023-04-28T00:08:43;99226.25;;;13.18
76541;BMP280;65385;55.772;37.658;2023-04-28T00:09:43;99227.31;;;13.17
76541;BMP280;65385;55.772;37.658;2023-04-28T00:10:44;99225.28;;;13.14
76541;BMP280;65385;55.772;37.658;2023-04-28T00:11:45;99227.41;;;13.12
76541;BMP280;65385;55.772;37.658;2023-04-28T00:12:46;99221.38;;;13.12
76541;BMP280;65385;55.772;37.658;2023-04-28T00:13:46;99224.31;;;13.10
76541;BMP280;65385;55.772;37.658;2023-04-28T00:14:47;99225.38;;;13.09
76541;BMP280;65385;55.772;37.658;2023-04-28T00:15:51;99223.03;;;13.08
76541;BMP280;65385;55.772;37.658;2023-04-28T00:16:54;99221.75;;;13.05
76541;BMP280;65385;55.772;37.658;2023-04-28T00:17:57;99223.03;;;13.08
76541;BMP280;65385;55.772;37.658;2023-04-28T00:18:57;99229.31;;;13.07
76541;BMP280;65385;55.772;37.658;2023-04-28T00:19:58;99222.06;;;13.04
76541;BMP280;65385;55.772;37.658;2023-04-28T00:20:58;99228.06;;;13.04
76541;BMP280;65385;55.772;37.658;2023-04-28T00:22:01;99223.91;;;13.03
76541;BMP280;65385;55.772;37.658;2023-04-28T00:23:01;99224.16;;;13.02
76541;BMP280;65385;55.772;37.658;2023-04-28T00:24:02;99225.22;;;13.01
76541;BMP280;65385;55.772;37.658;2023-04-28T00:25:03;99219.00;;;12.97
76541;BMP280;65385;55.772;37.658;2023-04-28T00:26:05;99214.53;;;12.97
76541;BMP280;65385;55.772;37.658;2023-04-28T00:27:06;99219.00;;;12.97
76541;BMP280;65385;55.772;37.658;2023-04-28T00:28:07;99216.94;;;12.94
76541;BMP280;65385;55.772;37.658;2023-04-28T00:29:08;99215.38;;;12.93
76541;BMP280;65385;55.772;37.658;2023-04-28T00:30:09;99210.13;;;12.93
76541;BMP280;65385;55.772;37.658;2023-04-28T00:31:11;99205.94;;;12.92
76541;BMP280;65385;55.772;37.658;2023-04-28T00:32:12;99210.72;;;12.90
76541;BMP280;65385;55.772;37.658;2023-04-28T00:33:13;99206.53;;;12.89
76541;BMP280;65385;55.772;37.658;2023-04-28T00:34:14;99207.59;;;12.88
76541;BMP280;65385;55.772;37.658;2023-04-28T00:35:14;99210.75;;;12.84
76541;BMP280;65385;55.772;37.658;2023-04-28T00:36:15;99211.53;;;12.85
76541;BMP280;65385;55.772;37.658;2023-04-28T00:37:16;99216.00;;;12.84
76541;BMP280;65385;55.772;37.658;2023-04-28T00:38:17;99212.59;;;12.84
76541;BMP280;65385;55.772;37.658;2023-04-28T00:39:17;99213.38;;;12.84
76541;BMP280;65385;55.772;37.658;2023-04-28T00:40:18;99212.94;;;12.82
76541;BMP280;65385;55.772;37.658;2023-04-28T00:41:19;99206.91;;;12.82
76541;BMP280;65385;55.772;37.658;2023-04-28T00:42:19;99203.50;;;12.81
76541;BMP280;65385;55.772;37.658;2023-04-28T00:43:20;99199.56;;;12.79
76541;BMP280;65385;55.772;37.658;2023-04-28T00:44:21;99205.59;;;12.79
76541;BMP280;65385;55.772;37.658;2023-04-28T00:45:22;99205.59;;;12.79
76541;BMP280;65385;55.772;37.658;2023-04-28T00:46:32;99205.09;;;12.77
76541;BMP280;65385;55.772;37.658;2023-04-28T00:47:33;99200.19;;;12.76
76541;BMP280;65385;55.772;37.658;2023-04-28T00:48:34;99205.69;;;12.74
76541;BMP280;65385;55.772;37.658;2023-04-28T00:49:35;99202.03;;;12.75
76541;BMP280;65385;55.772;37.658;2023-04-28T00:50:37;99208.06;;;12.76
76541;BMP280;65385;55.772;37.658;2023-04-28T00:51:38;99198.59;;;12.75
76541;BMP280;65385;55.772;37.658;2023-04-28T00:52:39;99205.44;;;12.76
76541;BMP280;65385;55.772;37.658;2023-04-28T00:53:41;99212.50;;;12.75
76541;BMP280;65385;55.772;37.658;2023-04-28T00:54:42;99198.88;;;12.73
76541;BMP280;65385;55.772;37.658;2023-04-28T00:55:42;99198.88;;;12.73
76541;BMP280;65385;55.772;37.658;2023-04-28T00:56:44;99209.09;;;12.75
76541;BMP280;65385;55.772;37.658;2023-04-28T00:57:45;99201.00;;;12.71
76541;BMP280;65385;55.772;37.658;2023-04-28T00:58:47;99207.81;;;12.72
76541;BMP280;65385;55.772;37.658;2023-04-28T00:59:48;99198.38;;;12.71
76541;BMP280;65385;55.772;37.658;2023-04-28T01:00:48;99200.50;;;12.69
76541;BMP280;65385;55.772;37.658;2023-04-28T01:01:49;99197.88;;;12.69
76541;BMP280;65385;55.772;37.658;2023-04-28T01:02:51;99198.97;;;12.68
76541;BMP280;65385;55.772;37.658;2023-04-28T01:03:52;99197.13;;;12.69
76541;BMP280;65385;55.772;37.658;2023-04-28T01:04:53;99200.81;;;12.68
76541;BMP280;65385;55.772;37.658;2023-04-28T01:05:55;99196.88;;;12.65
76541;BMP280;65385;55.772;37.658;2023-04-28T01:06:57;99203.44;;;12.68
76541;BMP280;65385;55.772;37.658;2023-04-28T01:07:59;99201.88;;;12.67
76541;BMP280;65385;55.772;37.658;2023-04-28T01:09:00;99200.56;;;12.64
76541;BMP280;65385;55.772;37.658;2023-04-28T01:10:01;99207.38;;;12.65
76541;BMP280;65385;55.772;37.658;2023-04-28T01:11:06;99203.97;;;12.65
76541;BMP280;65385;55.772;37.658;2023-04-28T01:12:29;99209.53;;;12.63
76541;BMP280;65385;55.772;37.658;2023-04-28T01:13:32;99213.22;;;12.62
76541;BMP280;65385;55.772;37.658;2023-04-28T01:14:33;99211.66;;;12.61
76541;BMP280;65385;55.772;37.658;2023-04-28T01:15:34;99217.41;;;12.63
76541;BMP280;65385;55.772;37.658;2023-04-28T01:16:35;99199.59;;;12.60
76541;BMP280;65385;55.772;37.658;2023-04-28T01:17:37;99214.28;;;12.61
76541;BMP280;65385;55.772;37.658;2023-04-28T01:18:41;99210.09;;;12.60
76541;BMP280;65385;55.772;37.658;2023-04-28T01:19:46;99207.75;;;12.59
76541;BMP280;65385;55.772;37.658;2023-04-28T01:20:47;99212.22;;;12.58
76541;BMP280;65385;55.772;37.658;2023-04-28T01:21:49;99208.81;;;12.58
76541;BMP280;65385;55.772;37.658;2023-04-28T01:22:53;99210.66;;;12.57
76541;BMP280;65385;55.772;37.658;2023-04-28T01:23:56;99209.59;;;12.58
76541;BMP280;65385;55.772;37.658;2023-04-28T01:24:57;99207.75;;;12.59
76541;BMP280;65385;55.772;37.658;2023-04-28T01:25:59;99212.22;;;12.58
76541;BMP280;65385;55.772;37.658;2023-04-28T01:27:01;99207.75;;;12.59
76541;BMP280;65385;55.772;37.658;2023-04-28T01:28:02;99213.00;;;12.59
76541;BMP280;65385;55.772;37.658;2023-04-28T01:29:02;99211.16;;;12.59
76541;BMP280;65385;55.772;37.658;2023-04-28T01:30:04;99204.84;;;12.60
76541;BMP280;65385;55.772;37.658;2023-04-28T01:31:04;99212.72;;;12.60
76541;BMP280;65385;55.772;37.658;2023-04-28T01:32:05;99215.84;;;12.62
76541;BMP280;65385;55.772;37.658;2023-04-28T01:33:07;99207.97;;;12.62
76541;BMP280;65385;55.772;37.658;2023-04-28T01:34:08;99214.78;;;12.63
76541;BMP280;65385;55.772;37.658;2023-04-28T01:35:09;99210.59;;;12.62
76541;BMP280;65385;55.772;37.658;2023-04-28T01:36:10;99218.47;;;12.62
76541;BMP280;65385;55.772;37.658;2023-04-28T01:37:11;99217.88;;;12.65
76541;BMP280;65385;55.772;37.658;2023-04-28T01:38:11;99217.88;;;12.65
76541;BMP280;65385;55.772;37.658;2023-04-28T01:39:12;99208.97;;;12.66
76541;BMP280;65385;55.772;37.658;2023-04-28T01:40:15;99211.59;;;12.66
76541;BMP280;65385;55.772;37.658;2023-04-28T01:41:15;99215.25;;;12.65
76541;BMP280;65385;55.772;37.658;2023-04-28T01:42:16;99216.31;;;12.64
76541;BMP280;65385;55.772;37.658;2023-04-28T01:43:17;99220.50;;;12.65
76541;BMP280;65385;55.772;37.658;2023-04-28T01:44:17;99218.66;;;12.66
76541;BMP280;65385;55.772;37.658;2023-04-28T01:45:18;99213.41;;;12.66
76541;BMP280;65385;55.772;37.658;2023-04-28T01:46:19;99208.97;;;12.66
76541;BMP280;65385;55.772;37.658;2023-04-28T01:47:19;99217.88;;;12.65
76541;BMP280;65385;55.772;37.658;2023-04-28T01:48:20;99222.34;;;12.65
76541;BMP280;65385;55.772;37.658;2023-04-28T01:49:21;99220.50;;;12.65
76541;BMP280;65385;55.772;37.658;2023-04-28T01:50:21;99227.31;;;12.66
76541;BMP280;65385;55.772;37.658;2023-04-28T01:51:22;99235.19;;;12.66
76541;BMP280;65385;55.772;37.658;2023-04-28T01:52:23;99223.91;;;12.66
76541;BMP280;65385;55.772;37.658;2023-04-28T01:53:23;99225.47;;;12.67
76541;BMP280;65385;55.772;37.658;2023-04-28T01:54:24;99226.28;;;12.67
76541;BMP280;65385;55.772;37.658;2023-04-28T01:55:26;99223.66;;;12.67
76541;BMP280;65385;55.772;37.658;2023-04-28T01:56:27;99224.69;;;12.66
76541;BMP280;65385;55.772;37.658;2023-04-28T01:57:30;99222.88;;;12.67
76541;BMP280;65385;55.772;37.658;2023-04-28T01:58:31;99214.72;;;12.68
76541;BMP280;65385;55.772;37.658;2023-04-28T01:59:32;99210.53;;;12.67
76541;BMP280;65385;55.772;37.658;2023-04-28T02:00:32;99211.31;;;12.68
76541;BMP280;65385;55.772;37.658;2023-04-28T02:01:33;99223.38;;;12.69
76541;BMP280;65385;55.772;37.658;2023-04-28T02:02:34;99216.75;;;12.71
76541;BMP280;65385;55.772;37.658;2023-04-28T02:03:35;99207.63;;;12.69
76541;BMP280;65385;55.772;37.658;2023-04-28T02:04:37;99213.84;;;12.73
76541;BMP280;65385;55.772;37.658;2023-04-28T02:05:38;99207.03;;;12.72
76541;BMP280;65385;55.772;37.658;2023-04-28T02:06:38;99215.13;;;12.75
76541;BMP280;65385;55.772;37.658;2023-04-28T02:07:39;99208.81;;;12.76
76541;BMP280;65385;55.772;37.658;2023-04-28T02:08:40;99204.53;;;12.80
76541;BMP280;65385;55.772;37.658;2023-04-28T02:09:40;99204.19;;;12.87
76541;BMP280;65385;55.772;37.658;2023-04-28T02:10:41;99210.06;;;12.98
76541;BMP280;65385;55.772;37.658;2023-04-28T02:11:41;99204.63;;;13.08
76541;BMP280;65385;55.772;37.658;2023-04-28T02:12:42;99210.22;;;13.20
76541;BMP280;65385;55.772;37.658;2023-04-28T02:13:43;99205.56;;;13.30
76541;BMP280;65385;55.772;37.658;2023-04-28T02:14:44;99205.56;;;13.44
76541;BMP280;65385;55.772;37.658;2023-04-28T02:15:45;99202.00;;;13.54
76541;BMP280;65385;55.772;37.658;2023-04-28T02:16:46;99204.72;;;13.62
76541;BMP280;65385;55.772;37.658;2023-04-28T02:17:47;99198.78;;;13.70
76541;BMP280;65385;55.772;37.658;2023-04-28T02:18:48;99208.13;;;13.76
76541;BMP280;65385;55.772;37.658;2023-04-28T02:19:58;99207.47;;;13.84
76541;BMP280;65385;55.772;37.658;2023-04-28T02:21:07;99211.25;;;13.92
76541;BMP280;65385;55.772;37.658;2023-04-28T02:22:08;99215.50;;;14.02
76541;BMP280;65385;55.772;37.658;2023-04-28T02:23:09;99204.19;;;14.15
76541;BMP280;65385;55.772;37.658;2023-04-28T02:24:09;99207.59;;;14.29
76541;BMP280;65385;55.772;37.658;2023-04-28T02:25:10;99208.31;;;14.43
76541;BMP280;65385;55.772;37.658;2023-04-28T02:26:11;99210.00;;;14.61
76541;BMP280;65385;55.772;37.658;2023-04-28T02:27:12;99213.84;;;14.77
76541;BMP280;65385;55.772;37.658;2023-04-28T02:28:13;99206.66;;;14.92
76541;BMP280;65385;55.772;37.658;2023-04-28T02:29:14;99211.38;;;15.03
76541;BMP280;65385;55.772;37.658;2023-04-28T02:30:14;99212.31;;;15.07
76541;BMP280;65385;55.772;37.658;2023-04-28T02:31:16;99211.25;;;15.08
76541;BMP280;65385;55.772;37.658;2023-04-28T02:32:17;99199.16;;;15.07
76541;BMP280;65385;55.772;37.658;2023-04-28T02:33:17;99207.06;;;15.07
76541;BMP280;65385;55.772;37.658;2023-04-28T02:34:18;99204.13;;;15.09
76541;BMP280;65385;55.772;37.658;2023-04-28T02:35:19;99199.94;;;15.08
76541;BMP280;65385;55.772;37.658;2023-04-28T02:36:19;99195.72;;;15.07
76541;BMP280;65385;55.772;37.658;2023-04-28T02:37:20;99199.56;;;15.01
76541;BMP280;65385;55.772;37.658;2023-04-28T02:38:23;99201.84;;;14.94
76541;BMP280;65385;55.772;37.658;2023-04-28T02:39:23;99190.78;;;14.83
76541;BMP280;65385;55.772;37.658;2023-04-28T02:40:26;99203.31;;;14.77
76541;BMP280;65385;55.772;37.658;2023-04-28T02:41:26;99205.09;;;14.68
76541;BMP280;65385;55.772;37.658;2023-04-28T02:42:29;99201.31;;;14.61
76541;BMP280;65385;55.772;37.658;2023-04-28T02:43:31;99211.69;;;14.57
76541;BMP280;65385;55.772;37.658;2023-04-28T02:44:31;99208.84;;;14.54
76541;BMP280;65385;55.772;37.658;2023-04-28T02:45:32;99211.31;;;14.50
76541;BMP280;65385;55.772;37.658;2023-04-28T02:46:32;99217.38;;;14.51
76541;BMP280;65385;55.772;37.658;2023-04-28T02:47:33;99216.88;;;14.49
76541;BMP280;65385;55.772;37.658;2023-04-28T02:48:34;99225.06;;;14.47
76541;BMP280;65385;55.772;37.658;2023-04-28T02:49:36;99225.66;;;14.44
76541;BMP280;65385;55.772;37.658;2023-04-28T02:50:36;99227.34;;;14.40
76541;BMP280;65385;55.772;37.658;2023-04-28T02:51:37;99225.28;;;14.37
76541;BMP280;65385;55.772;37.658;2023-04-28T02:52:38;99221.97;;;14.31
76541;BMP280;65385;55.772;37.658;2023-04-28T02:53:39;99227.88;;;14.28
76541;BMP280;65385;55.772;37.658;2023-04-28T02:54:40;99221.91;;;14.23
76541;BMP280;65385;55.772;37.658;2023-04-28T02:55:41;99228.06;;;14.18
76541;BMP280;65385;55.772;37.658;2023-04-28T02:56:42;99225.22;;;14.15
76541;BMP280;65385;55.772;37.658;2023-04-28T02:57:42;99216.66;;;14.09
76541;BMP280;65385;55.772;37.658;2023-04-28T02:58:43;99224.56;;;14.09
76541;BMP280;65385;55.772;37.658;2023-04-28T02:59:44;99223.59;;;14.05
76541;BMP280;65385;55.772;37.658;2023-04-28T03:00:45;99223.91;;;14.04
76541;BMP280;65385;55.772;37.658;2023-04-28T03:01:46;99224.19;;;14.02
76541;BMP280;65385;55.772;37.658;2023-04-28T03:02:47;99225.25;;;14.01
76541;BMP280;65385;55.772;37.658;2023-04-28T03:03:48;99226.81;;;14.02
76541;BMP280;65385;55.772;37.658;2023-04-28T03:04:49;99228.84;;;14.05
76541;BMP280;65385;55.772;37.658;2023-04-28T03:05:49;99229.75;;;14.14
76541;BMP280;65385;55.772;37.658;2023-04-28T03:06:50;99231.28;;;14.29
76541;BMP280;65385;55.772;37.658;2023-04-28T03:07:51;99234.13;;;14.41
76541;BMP280;65385;55.772;37.658;2023-04-28T03:08:52;99235.28;;;14.49
76541;BMP280;65385;55.772;37.658;2023-04-28T03:09:53;99238.13;;;14.52
76541;BMP280;65385;55.772;37.658;2023-04-28T03:10:53;99235.78;;;14.51
76541;BMP280;65385;55.772;37.658;2023-04-28T03:11:55;99234.22;;;14.50
76541;BMP280;65385;55.772;37.658;2023-04-28T03:12:55;99224.00;;;14.48
76541;BMP280;65385;55.772;37.658;2023-04-28T03:13:56;99221.94;;;14.45
76541;BMP280;65385;55.772;37.658;2023-04-28T03:14:57;99229.66;;;14.42
76541;BMP280;65385;55.772;37.658;2023-04-28T03:15:58;99231.31;;;14.37
76541;BMP280;65385;55.772;37.658;2023-04-28T03:16:59;99231.94;;;14.34
76541;BMP280;65385;55.772;37.658;2023-04-28T03:17:59;99223.84;;;14.31
76541;BMP280;65385;55.772;37.658;2023-04-28T03:19:00;99233.91;;;14.29
76541;BMP280;65385;55.772;37.658;2023-04-28T03:20:02;99223.94;;;14.26
76541;BMP280;65385;55.772;37.658;2023-04-28T03:21:03;99222.66;;;14.23
76541;BMP280;65385;55.772;37.658;2023-04-28T03:22:03;99233.53;;;14.22
76541;BMP280;65385;55.772;37.658;2023-04-28T03:23:06;99222.50;;;14.20
76541;BMP280;65385;55.772;37.658;2023-04-28T03:24:07;99230.22;;;14.16
76541;BMP280;65385;55.772;37.658;2023-04-28T03:25:08;99226.47;;;14.17
76541;BMP280;65385;55.772;37.658;2023-04-28T03:26:18;99227.84;;;14.15
76541;BMP280;65385;55.772;37.658;2023-04-28T03:27:22;99232.38;;;14.14
76541;BMP280;65385;55.772;37.658;2023-04-28T03:28:22;99234.03;;;14.10
76541;BMP280;65385;55.772;37.658;2023-04-28T03:29:23;99231.97;;;14.07
76541;BMP280;65385;55.772;37.658;2023-04-28T03:30:25;99235.09;;;14.09
76541;BMP280;65385;55.772;37.658;2023-04-28T03:31:26;99250.09;;;14.09
76541;BMP280;65385;55.772;37.658;2023-04-28T03:32:26;99255.94;;;14.06
76541;BMP280;65385;55.772;37.658;2023-04-28T03:33:27;99251.25;;;14.03
76541;BMP280;65385;55.772;37.658;2023-04-28T03:34:28;99237.91;;;13.99
76541;BMP280;65385;55.772;37.658;2023-04-28T03:35:29;99247.69;;;13.99
76541;BMP280;65385;55.772;37.658;2023-04-28T03:36:31;99246.41;;;13.96
76541;BMP280;65385;55.772;37.658;2023-04-28T03:37:40;99243.59;;;13.93
76541;BMP280;65385;55.772;37.658;2023-04-28T03:38:41;99244.16;;;13.90
76541;BMP280;65385;55.772;37.658;2023-04-28T03:39:41;99243.66;;;13.88
76541;BMP280;65385;55.772;37.658;2023-04-28T03:40:42;99243.97;;;13.86
76541;BMP280;65385;55.772;37.658;2023-04-28T03:41:48;99242.72;;;13.83
76541;BMP280;65385;55.772;37.658;2023-04-28T03:43:07;99244.81;;;13.81
76541;BMP280;65385;55.772;37.658;2023-04-28T03:44:12;99247.19;;;13.83
76541;BMP280;65385;55.772;37.658;2023-04-28T03:45:21;99253.22;;;13.83
76541;BMP280;65385;55.772;37.658;2023-04-28T03:46:22;99254.78;;;13.84
76541;BMP280;65385;55.772;37.658;2023-04-28T03:47:23;99243.97;;;13.86
76541;BMP280;65385;55.772;37.658;2023-04-28T03:48:24;99252.31;;;13.88
76541;BMP280;65385;55.772;37.658;2023-04-28T03:49:24;99249.94;;;13.92
76541;BMP280;65385;55.772;37.658;2023-04-28T03:50:25;99245.34;;;13.97
76541;BMP280;65385;55.772;37.658;2023-04-28T03:51:26;99249.69;;;14.02
76541;BMP280;65385;55.772;37.658;2023-04-28T03:52:27;99247.56;;;14.04
76541;BMP280;65385;55.772;37.658;2023-04-28T03:53:29;99255.16;;;14.05
76541;BMP280;65385;55.772;37.658;2023-04-28T03:54:30;99245.41;;;14.06
76541;BMP280;65385;55.772;37.658;2023-04-28T03:55:32;99248.72;;;14.11
76541;BMP280;65385;55.772;37.658;2023-04-28T03:56:33;99252.03;;;14.17
76541;BMP280;65385;55.772;37.658;2023-04-28T03:57:35;99254.75;;;14.25
76541;BMP280;65385;55.772;37.658;2023-04-28T03:58:36;99258.53;;;14.33
76541;BMP280;65385;55.772;37.658;2023-04-28T03:59:37;99256.75;;;14.42
76541;BMP280;65385;55.772;37.658;2023-04-28T04:00:38;99262.41;;;14.49
76541;BMP280;65385;55.772;37.658;2023-04-28T04:01:39;99260.72;;;14.53
76541;BMP280;65385;55.772;37.658;2023-04-28T04:02:40;99250.97;;;14.54
76541;BMP280;65385;55.772;37.658;2023-04-28T04:03:41;99257.22;;;14.58
76541;BMP280;65385;55.772;37.658;2023-04-28T04:04:42;99260.31;;;14.60
76541;BMP280;65385;55.772;37.658;2023-04-28T04:05:43;99261.88;;;14.61
76541;BMP280;65385;55.772;37.658;2023-04-28T04:06:44;99258.94;;;14.62
76541;BMP280;65385;55.772;37.658;2023-04-28T04:07:45;99253.41;;;14.64
76541;BMP280;65385;55.772;37.658;2023-04-28T04:08:46;99258.34;;;14.65
76541;BMP280;65385;55.772;37.658;2023-04-28T04:09:49;99255.72;;;14.65
76541;BMP280;65385;55.772;37.658;2023-04-28T04:10:50;99255.41;;;14.67
76541;BMP280;65385;55.772;37.658;2023-04-28T04:11:53;99256.38;;;14.71
76541;BMP280;65385;55.772;37.658;2023-04-28T04:12:53;99262.63;;;14.75
76541;BMP280;65385;55.772;37.658;2023-04-28T04:13:54;99263.88;;;14.77
76541;BMP280;65385;55.772;37.658;2023-04-28T04:14:57;99250.88;;;14.81
76541;BMP280;65385;55.772;37.658;2023-04-28T04:15:58;99256.34;;;14.84
76541;BMP280;65385;55.772;37.658;2023-04-28T04:17:00;99258.56;;;14.91
76541;BMP280;65385;55.772;37.658;2023-04-28T04:18:01;99264.75;;;14.95
76541;BMP280;65385;55.772;37.658;2023-04-28T04:19:10;99258.25;;;14.93
76541;BMP280;65385;55.772;37.658;2023-04-28T04:20:15;99267.22;;;14.92
76541;BMP280;65385;55.772;37.658;2023-04-28T04:21:15;99265.84;;;14.94
76541;BMP280;65385;55.772;37.658;2023-04-28T04:22:16;99267.38;;;14.95
76541;BMP280;65385;55.772;37.658;2023-04-28T04:23:17;99269.44;;;14.98
76541;BMP280;65385;55.772;37.658;2023-04-28T04:24:18;99267.59;;;14.99
76541;BMP280;65385;55.772;37.658;2023-04-28T04:25:18;99261.84;;;14.97
76541;BMP280;65385;55.772;37.658;2023-04-28T04:26:22;99262.03;;;15.00
76541;BMP280;65385;55.772;37.658;2023-04-28T04:27:23;99265.44;;;15.01
76541;BMP280;65385;55.772;37.658;2023-04-28T04:28:25;99268.53;;;15.03
76541;BMP280;65385;55.772;37.658;2023-04-28T04:29:26;99261.88;;;15.05
76541;BMP280;65385;55.772;37.658;2023-04-28T04:30:27;99261.31;;;15.08
76541;BMP280;65385;55.772;37.658;2023-04-28T04:31:27;99250.47;;;15.10
76541;BMP280;65385;55.772;37.658;2023-04-28T04:32:28;99256.50;;;15.10
76541;BMP280;65385;55.772;37.658;2023-04-28T04:33:29;99254.34;;;15.12
76541;BMP280;65385;55.772;37.658;2023-04-28T04:34:30;99256.06;;;15.17
76541;BMP280;65385;55.772;37.658;2023-04-28T04:35:31;99254.69;;;15.19
76541;BMP280;65385;55.772;37.658;2023-04-28T04:36:32;99259.38;;;15.22
76541;BMP280;65385;55.772;37.658;2023-04-28T04:37:32;99252.84;;;15.20
76541;BMP280;65385;55.772;37.658;2023-04-28T04:38:35;99254.09;;;15.22
76541;BMP280;65385;55.772;37.658;2023-04-28T04:39:46;99259.06;;;15.24
76541;BMP280;65385;55.772;37.658;2023-04-28T04:40:46;99260.63;;;15.25
76541;BMP280;65385;55.772;37.658;2023-04-28T04:41:47;99262.78;;;15.23
76541;BMP280;65385;55.772;37.658;2023-04-28T04:43:05;99266.19;;;15.23
76541;BMP280;65385;55.772;37.658;2023-04-28T04:44:12;99275.16;;;15.22
76541;BMP280;65385;55.772;37.658;2023-04-28T04:45:16;99271.66;;;15.27
76541;BMP280;65385;55.772;37.658;2023-04-28T04:46:17;99272.13;;;15.29
76541;BMP280;65385;55.772;37.658;2023-04-28T04:47:18;99273.19;;;15.28
76541;BMP280;65385;55.772;37.658;2023-04-28T04:48:19;99278.94;;;15.30
76541;BMP280;65385;55.772;37.658;2023-04-28T04:49:20;99273.69;;;15.30
76541;BMP280;65385;55.772;37.658;2023-04-28T04:50:21;99271.81;;;15.30
76541;BMP280;65385;55.772;37.658;2023-04-28T04:51:21;99276.31;;;15.30
76541;BMP280;65385;55.772;37.658;2023-04-28T04:52:22;99274.47;;;15.30
76541;BMP280;65385;55.772;37.658;2023-04-28T04:53:25;99283.91;;;15.31
76541;BMP280;65385;55.772;37.658;2023-04-28T04:54:27;99270.72;;;15.31
76541;BMP280;65385;55.772;37.658;2023-04-28T04:55:28;99272.13;;;15.29
76541;BMP280;65385;55.772;37.658;2023-04-28T04:56:28;99285.47;;;15.32
76541;BMP280;65385;55.772;37.658;2023-04-28T04:57:29;99286.72;;;15.35
76541;BMP280;65385;55.772;37.658;2023-04-28T04:58:50;99285.66;;;15.36
76541;BMP280;65385;55.772;37.658;2023-04-28T04:59:51;99285.66;;;15.36
76541;BMP280;65385;55.772;37.658;2023-04-28T05:00:52;99275.25;;;15.39
76541;BMP280;65385;55.772;37.658;2023-04-28T05:01:52;99279.66;;;15.44
76541;BMP280;65385;55.772;37.658;2023-04-28T05:02:53;99274.06;;;15.46
76541;BMP280;65385;55.772;37.658;2023-04-28T05:03:54;99274.72;;;15.51
76541;BMP280;65385;55.772;37.658;2023-04-28T05:04:54;99281.69;;;15.56
76541;BMP280;65385;55.772;37.658;2023-04-28T05:05:55;99283.47;;;15.60
76541;BMP280;65385;55.772;37.658;2023-04-28T05:07:15;99287.66;;;15.70
76541;BMP280;65385;55.772;37.658;2023-04-28T05:08:16;99295.28;;;15.71
76541;BMP280;65385;55.772;37.658;2023-04-28T05:09:17;99295.75;;;15.73
76541;BMP280;65385;55.772;37.658;2023-04-28T05:10:18;99297.31;;;15.74
76541;BMP280;65385;55.772;37.658;2023-04-28T05:11:18;99295.75;;;15.73
76541;BMP280;65385;55.772;37.658;2023-04-28T05:12:20;99290.94;;;15.75
76541;BMP280;65385;55.772;37.658;2023-04-28T05:13:20;99295.91;;;15.77
76541;BMP280;65385;55.772;37.658;2023-04-28T05:14:27;99294.34;;;15.76
76541;BMP280;65385;55.772;37.658;2023-04-28T05:15:29;99290.47;;;15.73
76541;BMP280;65385;55.772;37.658;2023-04-28T05:17:08;99296.22;;;15.75
76541;BMP280;65385;55.772;37.658;2023-04-28T05:18:11;99287.38;;;15.71
76541;BMP280;65385;55.772;37.658;2023-04-28T05:19:14;99303.47;;;15.70
76541;BMP280;65385;55.772;37.658;2023-04-28T05:20:15;99287.03;;;15.64
76541;BMP280;65385;55.772;37.658;2023-04-28T05:21:15;99308.47;;;15.71
76541;BMP280;65385;55.772;37.658;2023-04-28T05:22:16;99308.16;;;15.73
76541;BMP280;65385;55.772;37.658;2023-04-28T05:23:17;99299.94;;;15.74
76541;BMP280;65385;55.772;37.658;2023-04-28T05:24:17;99305.38;;;15.78
76541;BMP280;65385;55.772;37.658;2023-04-28T05:25:21;99297.16;;;15.79
76541;BMP280;65385;55.772;37.658;2023-04-28T05:26:22;99305.56;;;15.81
76541;BMP280;65385;55.772;37.658;2023-04-28T05:27:26;99295.94;;;15.85
76541;BMP280;65385;55.772;37.658;2023-04-28T05:28:27;99303.72;;;15.90
76541;BMP280;65385;55.772;37.658;2023-04-28T05:29:29;99303.41;;;15.92
76541;BMP280;65385;55.772;37.658;2023-04-28T05:30:30;99291.00;;;15.92
76541;BMP280;65385;55.772;37.658;2023-04-28T05:31:30;99299.38;;;15.94
76541;BMP280;65385;55.772;37.658;2023-04-28T05:32:33;99299.72;;;15.93
76541;BMP280;65385;55.772;37.658;2023-04-28T05:33:34;99303.41;;;15.92
76541;BMP280;65385;55.772;37.658;2023-04-28T05:34:34;99299.72;;;15.93
76541;BMP280;65385;55.772;37.658;2023-04-28T05:35:35;99308.88;;;15.95
76541;BMP280;65385;55.772;37.658;2023-04-28T05:36:36;99307.78;;;15.96
76541;BMP280;65385;55.772;37.658;2023-04-28T05:37:38;99316.78;;;15.95
76541;BMP280;65385;55.772;37.658;2023-04-28T05:38:39;99307.31;;;15.94
